Time;durP1;ratioP1;P1;durP2;ratioP2;P2;SDS_P1;SDS_P2;PMS_P1;PMS_P2;Temp;Humidity;BMP_temperature;BMP_pressure;BME280_temperature;BME280_humidity;BME280_pressure;Samples;Min_cycle;Max_cycle;Signal;HPM_P1;HPM_P2
2021/05/09 00:01:00;;;;;;;41.3;23;;;;;;;1.5;100;98972.13;;;;
2021/05/09 00:10:58;;;;;;;31.2;25.6;;;;;;;1.46;100;98968.34;;;;
2021/05/09 00:20:55;;;;;;;38.9;23;;;;;;;1.4;100;98975.42;;;;
2021/05/09 00:30:53;;;;;;;29.3;22.9;;;;;;;1.31;100;98971.55;;;;
2021/05/09 00:40:50;;;;;;;23.6;20.3;;;;;;;1.24;100;98965.58;;;;
2021/05/09 00:50:48;;;;;;;27.8;19.8;;;;;;;1.14;100;98957.44;;;;
2021/05/09 01:00:46;;;;;;;24;17.5;;;;;;;1.1;100;98963.45;;;;
2021/05/09 01:10:43;;;;;;;19.1;17.1;;;;;;;1.03;100;98952.97;;;;
2021/05/09 01:20:41;;;;;;;20.1;15.6;;;;;;;1;100;98948.14;;;;
2021/05/09 01:30:38;;;;;;;20.2;16.6;;;;;;;0.94;100;98951.72;;;;
2021/05/09 01:40:36;;;;;;;22.2;15.5;;;;;;;0.92;100;98940.55;;;;
2021/05/09 01:50:33;;;;;;;20;16.1;;;;;;;0.83;100;98942.76;;;;
2021/05/09 02:20:26;;;;;;;32.8;23.3;;;;;;;0.83;100;98936.67;;;;
2021/05/09 02:30:23;;;;;;;28.3;20.4;;;;;;;1.06;100;98944.53;;;;
2021/05/09 02:40:21;;;;;;;29.7;21.3;;;;;;;1.4;100;98930.28;;;;
2021/05/09 02:50:19;;;;;;;28.2;20;;;;;;;1.74;100;98920.47;;;;
2021/05/09 03:00:16;;;;;;;27.3;20;;;;;;;2.07;100;98929.48;;;;
2021/05/09 03:10:14;;;;;;;23.9;20.6;;;;;;;2.32;100;98938.63;;;;
2021/05/09 03:20:11;;;;;;;23.8;20.2;;;;;;;2.64;100;98936.09;;;;
2021/05/09 03:30:09;;;;;;;22.9;17.9;;;;;;;2.92;100;98941.22;;;;
2021/05/09 03:40:07;;;;;;;27.4;19;;;;;;;3.13;100;98957.42;;;;
2021/05/09 03:50:05;;;;;;;34.3;21.7;;;;;;;3.22;100;98963.92;;;;
2021/05/09 04:00:03;;;;;;;28;21.9;;;;;;;3.31;100;98952.56;;;;
2021/05/09 04:10:00;;;;;;;23.3;18.1;;;;;;;3.6;100;98957.64;;;;
2021/05/09 04:19:58;;;;;;;25.8;19.8;;;;;;;4.11;100;98948.17;;;;
2021/05/09 04:29:56;;;;;;;22.5;19.6;;;;;;;4.83;100;98958.97;;;;
2021/05/09 04:39:54;;;;;;;21.8;19.1;;;;;;;5.5;100;98951.7;;;;
2021/05/09 04:49:52;;;;;;;33.6;21.2;;;;;;;6.13;100;98954.14;;;;
2021/05/09 04:59:50;;;;;;;64.6;49.7;;;;;;;6.46;100;98954.34;;;;
2021/05/09 05:09:49;;;;;;;34.2;30.5;;;;;;;6.72;100;98949.73;;;;
2021/05/09 05:19:47;;;;;;;23.6;18.4;;;;;;;7.11;100;98963.24;;;;
2021/05/09 05:29:45;;;;;;;22.3;15.6;;;;;;;7.68;100;98943.84;;;;
2021/05/09 05:39:45;;;;;;;18.9;16.7;;;;;;;8.49;100;98935.09;;;;
2021/05/09 05:49:42;;;;;;;17.1;14.2;;;;;;;9.47;100;98939.78;;;;
2021/05/09 05:59:40;;;;;;;14.2;11.9;;;;;;;10.04;96.19824;98949.36;;;;
2021/05/09 06:09:39;;;;;;;12;9.1;;;;;;;10.41;89.72559;98962.75;;;;
2021/05/09 06:19:37;;;;;;;13.2;8.2;;;;;;;10.88;85.57813;98955.41;;;;
2021/05/09 06:29:36;;;;;;;7.7;5.8;;;;;;;11.41;84.00293;98942.95;;;;
2021/05/09 06:39:35;;;;;;;6.1;4.2;;;;;;;12.03;79.30664;98941.25;;;;
2021/05/09 06:49:34;;;;;;;5.1;2;;;;;;;12.52;71.42285;98915.12;;;;
2021/05/09 06:59:33;;;;;;;3.1;1.9;;;;;;;13;71.25;98928.64;;;;
2021/05/09 07:09:32;;;;;;;5.3;1.8;;;;;;;13.4;70.90527;98921.23;;;;
2021/05/09 07:19:31;;;;;;;4.1;1.9;;;;;;;13.99;68.76855;98904.16;;;;
2021/05/09 07:29:30;;;;;;;3.1;1.5;;;;;;;14.67;68.76074;98899.69;;;;
2021/05/09 07:39:29;;;;;;;3.7;1.7;;;;;;;14.98;61.73926;98904.78;;;;
2021/05/09 07:49:28;;;;;;;2.9;1.3;;;;;;;15.32;58.65918;98896.41;;;;
2021/05/09 07:59:28;;;;;;;3.3;1.4;;;;;;;15.78;57.00879;98898.15;;;;
2021/05/09 08:09:26;;;;;;;3.9;2;;;;;;;15.95;56.82324;98894.47;;;;
2021/05/09 08:19:26;;;;;;;3.9;1.4;;;;;;;16.2;55.83203;98887.17;;;;
2021/05/09 08:29:25;;;;;;;3.1;1.6;;;;;;;16.39;54.80859;98890.94;;;;
2021/05/09 08:39:24;;;;;;;3.1;1.3;;;;;;;16.81;53.48926;98869.79;;;;
2021/05/09 08:49:24;;;;;;;3.4;1.6;;;;;;;16.92;49.70898;98876.36;;;;
2021/05/09 08:59:23;;;;;;;7;1.8;;;;;;;17.07;45.93652;98862.06;;;;
2021/05/09 09:09:23;;;;;;;2.8;1.4;;;;;;;17.52;48.86328;98870;;;;
2021/05/09 09:19:22;;;;;;;3.9;1.4;;;;;;;17.42;42.95215;98862.28;;;;
2021/05/09 09:29:22;;;;;;;3.1;1.1;;;;;;;17.79;41.19141;98852.08;;;;
2021/05/09 09:39:21;;;;;;;3.8;1.5;;;;;;;18.31;42.70215;98851.09;;;;
2021/05/09 09:49:21;;;;;;;2.4;1.1;;;;;;;18.52;39.22656;98854.38;;;;
2021/05/09 09:59:21;;;;;;;3.3;1.3;;;;;;;18.7;42.25195;98844.69;;;;
2021/05/09 10:09:20;;;;;;;2.2;1;;;;;;;18.99;38.1875;98841.44;;;;
2021/05/09 10:19:20;;;;;;;2.8;1.1;;;;;;;19.37;36.37891;98823.5;;;;
2021/05/09 10:29:20;;;;;;;3.5;0.9;;;;;;;19.46;34.83594;98824.13;;;;
2021/05/09 10:39:20;;;;;;;1.3;0.7;;;;;;;19.89;36.17676;98806.57;;;;
2021/05/09 10:49:19;;;;;;;1.5;0.7;;;;;;;20.02;38.67188;98781.44;;;;
2021/05/09 10:59:19;;;;;;;3.4;1.7;;;;;;;20.51;35.15234;98775.98;;;;
2021/05/09 11:09:19;;;;;;;3.9;1.5;;;;;;;20.57;35.16992;98780;;;;
2021/05/09 11:19:19;;;;;;;1.3;0.8;;;;;;;20.87;34.33887;98763.59;;;;
2021/05/09 11:29:19;;;;;;;2.2;0.9;;;;;;;20.79;36.53125;98772.86;;;;
2021/05/09 11:39:19;;;;;;;2.9;1.1;;;;;;;21.05;35.3125;98767.37;;;;
2021/05/09 11:49:19;;;;;;;2.3;1.3;;;;;;;21.18;33.55566;98759.71;;;;
2021/05/09 11:59:19;;;;;;;2.7;1.1;;;;;;;21.81;36.2627;98747.86;;;;
2021/05/09 12:09:19;;;;;;;3.2;1.2;;;;;;;21.88;36.74902;98751.47;;;;
2021/05/09 12:19:19;;;;;;;1.3;0.6;;;;;;;21.97;35.75977;98731.98;;;;
2021/05/09 12:29:19;;;;;;;1.4;0.9;;;;;;;21.96;33.60156;98722.16;;;;
2021/05/09 12:39:19;;;;;;;2.5;1.1;;;;;;;22.04;33.9707;98715.58;;;;
2021/05/09 12:49:19;;;;;;;1.1;0.5;;;;;;;22.3;33.19238;98700.84;;;;
2021/05/09 12:59:23;;;;;;;2;0.7;;;;;;;22.36;32.98633;98685.58;;;;
2021/05/09 13:09:20;;;;;;;2.7;1.1;;;;;;;22.5;32.92578;98674.68;;;;
2021/05/09 13:19:20;;;;;;;5.1;1.5;;;;;;;22.7;33.15234;98672.48;;;;
2021/05/09 13:29:20;;;;;;;2;0.9;;;;;;;23.06;33.77832;98665.93;;;;
2021/05/09 13:39:20;;;;;;;2;1;;;;;;;23.21;32.55469;98647.52;;;;
2021/05/09 13:49:20;;;;;;;1.5;0.6;;;;;;;23.61;35.14941;98635.41;;;;
2021/05/09 13:59:21;;;;;;;3.4;1;;;;;;;24.04;32.26172;98620.45;;;;
2021/05/09 14:09:21;;;;;;;2.2;1;;;;;;;24.31;31.73828;98613.34;;;;
2021/05/09 14:19:21;;;;;;;3.5;1.2;;;;;;;24.82;34.50098;98606.44;;;;
2021/05/09 14:29:22;;;;;;;2.1;0.9;;;;;;;25.34;32.42578;98607.34;;;;
2021/05/09 14:39:22;;;;;;;2.3;0.9;;;;;;;25.17;31.27832;98599.97;;;;
2021/05/09 14:49:23;;;;;;;2.6;0.9;;;;;;;25.56;30.70313;98600.52;;;;
2021/05/09 14:59:25;;;;;;;2.5;1;;;;;;;25.28;29.19336;98587.69;;;;
2021/05/09 15:09:24;;;;;;;1.4;0.7;;;;;;;27.66;30.53711;98572.7;;;;
2021/05/09 15:19:24;;;;;;;1.9;0.7;;;;;;;29.99;25.6709;98580.04;;;;
2021/05/09 15:29:26;;;;;;;2.5;0.8;;;;;;;31.08;24.44922;98573.35;;;;
2021/05/09 15:39:27;;;;;;;2;0.8;;;;;;;31.87;21.94238;98570.38;;;;
2021/05/09 15:49:29;;;;;;;2.1;0.8;;;;;;;32.45;20.48828;98565.16;;;;
2021/05/09 15:59:30;;;;;;;1.3;0.6;;;;;;;32.54;22.08301;98565.2;;;;
2021/05/09 16:09:32;;;;;;;1.4;0.8;;;;;;;31.95;23.48633;98552.18;;;;
2021/05/09 16:19:34;;;;;;;1.6;0.7;;;;;;;28.29;25.9209;98548.58;;;;
2021/05/09 16:29:35;;;;;;;5.9;1.6;;;;;;;27.21;27.12012;98543.75;;;;
2021/05/09 16:39:36;;;;;;;1.3;0.8;;;;;;;27.14;26.79492;98533.58;;;;
2021/05/09 16:49:37;;;;;;;4.1;1.8;;;;;;;28.15;26.46094;98537.02;;;;
2021/05/09 16:59:38;;;;;;;4.8;2.5;;;;;;;26.93;27.42383;98539.43;;;;
2021/05/09 17:09:41;;;;;;;5.7;2.1;;;;;;;26.4;28.28125;98534.58;;;;
2021/05/09 17:19:40;;;;;;;5.9;2;;;;;;;24.66;29.84961;98528.95;;;;
2021/05/09 17:29:40;;;;;;;5.3;1.9;;;;;;;23.08;33.03906;98522.59;;;;
2021/05/09 17:39:41;;;;;;;3.3;1.2;;;;;;;22.02;33.99414;98526.55;;;;
2021/05/09 17:49:41;;;;;;;3;1.7;;;;;;;21.17;36.7959;98525.17;;;;
2021/05/09 17:59:41;;;;;;;4.4;1.8;;;;;;;20.09;37.65234;98527.08;;;;
2021/05/09 18:09:42;;;;;;;5;2.1;;;;;;;19.02;41.85156;98534.02;;;;
2021/05/09 18:29:40;;;;;;;3.5;1.6;;;;;;;17.67;46.96973;98546.83;;;;
2021/05/09 18:39:40;;;;;;;3.9;2.2;;;;;;;17.03;47.89746;98545.28;;;;
2021/05/09 18:49:39;;;;;;;4.3;2.2;;;;;;;16.24;48.8252;98562.54;;;;
2021/05/09 18:59:39;;;;;;;8.6;4.3;;;;;;;15.75;50.51953;98561.05;;;;
2021/05/09 19:09:38;;;;;;;25.6;21.1;;;;;;;15.15;51.74902;98568.03;;;;
2021/05/09 19:19:37;;;;;;;6.4;4.2;;;;;;;14.65;52.17285;98562.05;;;;
2021/05/09 19:29:36;;;;;;;7.4;5.5;;;;;;;14.17;54.32617;98562.59;;;;
2021/05/09 19:39:35;;;;;;;7.8;4.2;;;;;;;13.83;55.45313;98556.31;;;;
2021/05/09 19:49:35;;;;;;;9.7;3;;;;;;;13.51;55.04688;98557.78;;;;
2021/05/09 19:59:33;;;;;;;7.1;4;;;;;;;12.91;58.38379;98557.23;;;;
2021/05/09 20:09:32;;;;;;;10.6;3.6;;;;;;;12.52;58.34277;98555.56;;;;
2021/05/09 20:19:31;;;;;;;7.3;3.9;;;;;;;12.32;61.35645;98565.1;;;;
2021/05/09 20:29:29;;;;;;;13.1;5.3;;;;;;;11.82;59.99023;98578.28;;;;
2021/05/09 20:39:28;;;;;;;8;4;;;;;;;11.45;64.17383;98578.81;;;;
2021/05/09 20:49:27;;;;;;;7.3;3.5;;;;;;;11.3;62.39355;98584.62;;;;
2021/05/09 20:59:25;;;;;;;5.8;4.1;;;;;;;11.03;61.64063;98582.92;;;;
2021/05/09 21:09:24;;;;;;;4.8;2.9;;;;;;;10.75;62.82422;98573.41;;;;
2021/05/09 21:19:23;;;;;;;3.5;1.6;;;;;;;10.73;61.38184;98589.08;;;;
2021/05/09 21:29:21;;;;;;;4.5;2;;;;;;;10.89;61.23535;98580.32;;;;
2021/05/09 21:39:20;;;;;;;5.4;2.1;;;;;;;11.15;61.17969;98579.63;;;;
2021/05/09 21:49:18;;;;;;;3.6;2;;;;;;;11.59;58.27637;98588.35;;;;
2021/05/09 21:59:17;;;;;;;3.1;1.6;;;;;;;11.69;58.34473;98575.69;;;;
2021/05/09 22:09:16;;;;;;;2.9;1.6;;;;;;;11.92;57.72754;98577.98;;;;
2021/05/09 22:19:14;;;;;;;4.7;1.8;;;;;;;11.79;57.28906;98576.22;;;;
2021/05/09 22:29:13;;;;;;;4.1;2;;;;;;;11.73;56.72461;98574.76;;;;
2021/05/09 22:39:12;;;;;;;3.1;1.4;;;;;;;11.6;56.61621;98568.36;;;;
2021/05/09 22:49:10;;;;;;;5.7;2.5;;;;;;;11.54;56.7334;98552.63;;;;
2021/05/09 22:59:09;;;;;;;2.8;1.6;;;;;;;11.09;56.66504;98547.41;;;;
2021/05/09 23:09:07;;;;;;;3.2;1.8;;;;;;;10.69;58.63184;98545.77;;;;
2021/05/09 23:19:29;;;;;;;3;1.7;;;;;;;10.42;59.76367;98529.77;;;;
2021/05/09 23:29:04;;;;;;;6.1;3.1;;;;;;;10.15;59.47656;98521.81;;;;
2021/05/09 23:39:03;;;;;;;5.9;3.1;;;;;;;9.78;61.10156;98514.85;;;;
2021/05/09 23:49:01;;;;;;;5.9;3.9;;;;;;;9.41;61.9541;98511.33;;;;
2021/05/09 23:59:00;;;;;;;9.8;4.7;;;;;;;9.14;64.82813;98499.8;;;;
